createdAt,value
2022-10-30T00:02:23.107Z,100898.63
2022-10-30T00:04:49.655Z,100898.06
2022-10-30T00:07:16.262Z,100900.19
2022-10-30T00:09:42.830Z,100895.56
2022-10-30T00:12:09.327Z,100896.03
2022-10-30T00:14:35.850Z,100894.81
2022-10-30T00:17:02.360Z,100891.69
2022-10-30T00:19:28.864Z,100887.72
2022-10-30T00:24:24.283Z,100885.31
2022-10-30T00:26:50.814Z,100884.56
2022-10-30T00:29:17.632Z,100878.53
2022-10-30T00:31:44.155Z,100884.47
2022-10-30T00:34:10.685Z,100874.47
2022-10-30T00:36:37.213Z,100875.94
2022-10-30T00:39:04.118Z,100875.88
2022-10-30T00:41:30.644Z,100880.47
2022-10-30T00:43:57.172Z,100880.50
2022-10-30T00:46:40.614Z,100877.50
2022-10-30T00:49:13.657Z,100879.28
2022-10-30T00:51:47.279Z,100877.28
2022-10-30T00:54:16.454Z,100879.66
2022-10-30T00:56:43.688Z,100895.06
2022-10-30T00:59:14.609Z,100892.28
2022-10-30T01:01:45.092Z,100887.97
2022-10-30T01:04:13.268Z,100880.81
2022-10-30T01:06:42.455Z,100889.63
2022-10-30T01:09:09.070Z,100879.56
2022-10-30T01:11:35.757Z,100876.13
2022-10-30T01:14:05.898Z,100876.03
2022-10-30T01:16:41.325Z,100874.13
2022-10-30T01:19:16.808Z,100868.34
2022-10-30T01:21:53.730Z,100873.91
2022-10-30T01:24:28.404Z,100876.44
2022-10-30T01:27:08.947Z,100876.44
2022-10-30T01:30:16.050Z,100870.38
2022-10-30T01:32:59.264Z,100871.09
2022-10-30T01:35:47.425Z,100871.41
2022-10-30T01:38:21.492Z,100874.69
2022-10-30T01:40:48.015Z,100865.91
2022-10-30T01:43:15.629Z,100867.84
2022-10-30T01:46:00.299Z,100858.94
2022-10-30T01:49:04.239Z,100856.63
2022-10-30T01:51:58.774Z,100858.25
2022-10-30T01:54:45.425Z,100856.00
2022-10-30T01:57:22.825Z,100853.59
2022-10-30T01:59:59.866Z,100860.28
2022-10-30T02:02:26.599Z,100853.75
2022-10-30T02:04:53.379Z,100856.47
2022-10-30T02:07:20.052Z,100855.59
2022-10-30T02:09:46.791Z,100857.03
2022-10-30T02:12:13.531Z,100850.06
2022-10-30T02:14:47.068Z,100859.69
2022-10-30T02:17:13.791Z,100857.09
2022-10-30T02:19:40.237Z,100854.63
2022-10-30T02:22:07.015Z,100864.91
2022-10-30T02:24:33.645Z,100864.53
2022-10-30T02:27:00.472Z,100866.03
2022-10-30T02:29:27.210Z,100867.88
2022-10-30T02:31:53.796Z,100864.44
2022-10-30T02:34:20.469Z,100867.59
2022-10-30T02:36:47.019Z,100871.06
2022-10-30T02:39:13.522Z,100874.28
2022-10-30T02:41:39.975Z,100871.72
2022-10-30T02:44:06.693Z,100872.41
2022-10-30T02:46:33.870Z,100873.44
2022-10-30T02:49:00.423Z,100869.59
2022-10-30T02:51:26.877Z,100873.28
2022-10-30T02:53:53.526Z,100858.28
2022-10-30T02:56:20.005Z,100874.94
2022-10-30T02:58:46.455Z,100867.59
2022-10-30T03:01:15.630Z,100878.63
2022-10-30T03:03:42.677Z,100876.63
2022-10-30T03:06:11.952Z,100872.38
2022-10-30T03:08:38.559Z,100879.22
2022-10-30T03:11:11.883Z,100879.09
2022-10-30T03:13:40.737Z,100881.94
2022-10-30T03:16:09.925Z,100877.94
2022-10-30T03:18:36.726Z,100873.78
2022-10-30T03:21:05.771Z,100868.25
2022-10-30T03:23:32.804Z,100863.19
2022-10-30T03:25:59.844Z,100861.38
2022-10-30T03:28:28.776Z,100861.19
2022-10-30T03:31:00.629Z,100857.00
2022-10-30T03:33:27.181Z,100866.03
2022-10-30T03:35:53.661Z,100871.28
2022-10-30T03:38:20.333Z,100875.13
2022-10-30T03:40:46.849Z,100871.03
2022-10-30T03:43:13.414Z,100873.22
2022-10-30T03:45:39.902Z,100871.59
2022-10-30T03:48:06.565Z,100873.94
2022-10-30T03:50:33.260Z,100874.09
2022-10-30T03:52:59.831Z,100871.16
2022-10-30T03:55:26.417Z,100874.44
2022-10-30T03:57:52.921Z,100875.22
2022-10-30T04:00:19.529Z,100872.31
2022-10-30T04:02:47.551Z,100867.94
2022-10-30T04:05:19.816Z,100862.78
2022-10-30T04:07:47.166Z,100872.31
2022-10-30T04:10:19.345Z,100864.66
2022-10-30T04:12:49.398Z,100872.16
2022-10-30T04:15:15.986Z,100869.19
2022-10-30T04:17:51.504Z,100873.22
2022-10-30T04:20:19.245Z,100868.34
2022-10-30T04:22:46.247Z,100866.06
2022-10-30T04:25:13.403Z,100866.94
2022-10-30T04:27:44.431Z,100874.81
2022-10-30T04:30:12.764Z,100871.00
2022-10-30T04:32:52.635Z,100864.72
2022-10-30T04:35:21.823Z,100864.19
2022-10-30T04:37:59.652Z,100867.81
2022-10-30T04:40:29.458Z,100862.56
2022-10-30T04:42:56.878Z,100861.81
2022-10-30T04:45:23.978Z,100855.72
2022-10-30T04:47:50.564Z,100858.25
2022-10-30T04:50:17.672Z,100858.50
2022-10-30T04:52:44.343Z,100849.28
2022-10-30T04:55:11.490Z,100858.13
2022-10-30T04:57:38.511Z,100851.88
2022-10-30T05:00:07.784Z,100855.72
2022-10-30T05:02:36.723Z,100855.88
2022-10-30T05:05:04.017Z,100861.28
2022-10-30T05:07:30.573Z,100850.50
2022-10-30T05:09:57.021Z,100853.59
2022-10-30T05:12:23.495Z,100861.06
2022-10-30T05:14:49.977Z,100855.44
2022-10-30T05:17:16.565Z,100861.00
2022-10-30T05:19:43.099Z,100857.28
2022-10-30T05:22:10.422Z,100856.16
2022-10-30T05:24:36.968Z,100864.81
2022-10-30T05:27:03.655Z,100851.38
2022-10-30T05:29:30.100Z,100857.94
2022-10-30T05:31:56.756Z,100851.94
2022-10-30T05:34:23.319Z,100855.16
2022-10-30T05:36:49.853Z,100855.72
2022-10-30T05:39:16.337Z,100852.66
2022-10-30T05:41:42.819Z,100853.53
2022-10-30T05:44:09.280Z,100849.81
2022-10-30T05:46:35.758Z,100845.94
2022-10-30T05:49:02.287Z,100846.91
2022-10-30T05:51:28.824Z,100853.28
2022-10-30T05:53:55.264Z,100845.88
2022-10-30T05:56:21.719Z,100842.53
2022-10-30T05:58:50.086Z,100854.09
2022-10-30T06:01:17.031Z,100853.69
2022-10-30T06:03:43.958Z,100856.56
2022-10-30T06:06:10.582Z,100853.53
2022-10-30T06:08:37.348Z,100863.75
2022-10-30T06:11:03.821Z,100866.38
2022-10-30T06:13:30.285Z,100867.09
2022-10-30T06:15:56.912Z,100868.47
2022-10-30T06:18:23.680Z,100863.84
2022-10-30T06:20:50.192Z,100879.63
2022-10-30T06:23:16.749Z,100875.13
2022-10-30T06:25:43.255Z,100878.09
2022-10-30T06:28:11.380Z,100877.03
2022-10-30T06:30:37.978Z,100871.94
2022-10-30T06:33:05.678Z,100873.16
2022-10-30T06:35:32.526Z,100872.31
2022-10-30T06:38:02.211Z,100872.97
2022-10-30T06:40:32.070Z,100883.28
2022-10-30T06:42:59.120Z,100879.81
2022-10-30T06:45:25.883Z,100886.22
2022-10-30T06:47:52.497Z,100890.00
2022-10-30T06:50:24.078Z,100891.84
2022-10-30T06:52:50.684Z,100894.44
2022-10-30T06:55:17.670Z,100889.53
2022-10-30T06:57:44.303Z,100894.44
2022-10-30T07:00:11.838Z,100894.09
2022-10-30T07:02:38.327Z,100892.72
2022-10-30T07:05:05.161Z,100887.59
2022-10-30T07:07:31.701Z,100895.03
2022-10-30T07:09:58.210Z,100890.94
2022-10-30T07:12:24.769Z,100887.06
2022-10-30T07:14:51.298Z,100891.91
2022-10-30T07:17:17.785Z,100900.09
2022-10-30T07:19:44.339Z,100895.25
2022-10-30T07:22:10.850Z,100889.28
2022-10-30T07:24:37.314Z,100898.34
2022-10-30T07:27:03.803Z,100900.97
2022-10-30T07:29:30.308Z,100897.78
2022-10-30T07:32:02.763Z,100903.75
2022-10-30T07:34:30.276Z,100904.19
2022-10-30T07:36:56.922Z,100898.44
2022-10-30T07:39:23.472Z,100901.47
2022-10-30T07:41:50.600Z,100908.38
2022-10-30T07:44:17.497Z,100906.50
2022-10-30T07:46:44.024Z,100910.63
2022-10-30T07:49:10.564Z,100917.16
2022-10-30T07:51:37.000Z,100917.16
2022-10-30T07:54:03.802Z,100913.34
2022-10-30T07:56:30.326Z,100922.53
2022-10-30T07:58:56.776Z,100920.13
2022-10-30T08:01:23.367Z,100918.31
2022-10-30T08:03:50.024Z,100922.91
2022-10-30T08:06:18.066Z,100925.41
2022-10-30T08:08:46.656Z,100924.84
2022-10-30T08:11:13.165Z,100921.00
2022-10-30T08:13:39.663Z,100914.22
2022-10-30T08:16:06.372Z,100918.28
2022-10-30T08:18:32.982Z,100919.09
2022-10-30T08:20:59.453Z,100918.75
2022-10-30T08:23:25.955Z,100927.63
2022-10-30T08:25:52.421Z,100919.66
2022-10-30T08:28:18.941Z,100912.09
2022-10-30T08:30:45.512Z,100924.00
2022-10-30T08:33:16.409Z,100919.59
2022-10-30T08:35:50.660Z,100917.31
2022-10-30T08:38:18.277Z,100925.88
2022-10-30T08:40:44.993Z,100922.66
2022-10-30T08:43:11.808Z,100922.22
2022-10-30T08:45:38.465Z,100920.28
2022-10-30T08:48:06.605Z,100923.41
2022-10-30T08:50:34.174Z,100919.69
2022-10-30T08:53:05.533Z,100924.63
2022-10-30T08:55:33.076Z,100924.28
2022-10-30T08:57:59.894Z,100920.06
2022-10-30T09:00:27.308Z,100925.97
2022-10-30T09:02:54.338Z,100915.50
2022-10-30T09:05:21.539Z,100914.47
2022-10-30T09:07:48.227Z,100907.72
2022-10-30T09:10:15.509Z,100913.56
2022-10-30T09:12:42.023Z,100902.63
2022-10-30T09:15:08.798Z,100910.78
2022-10-30T09:17:35.480Z,100912.09
2022-10-30T09:20:02.183Z,100899.59
2022-10-30T09:22:28.699Z,100908.31
2022-10-30T09:24:55.327Z,100908.88
2022-10-30T09:27:21.795Z,100902.97
2022-10-30T09:29:48.287Z,100907.59
2022-10-30T09:32:14.832Z,100903.47
2022-10-30T09:34:41.446Z,100900.72
2022-10-30T09:37:08.380Z,100902.31
2022-10-30T09:39:35.143Z,100899.84
2022-10-30T09:42:21.246Z,100909.59
2022-10-30T09:45:28.079Z,100910.81
2022-10-30T09:48:20.241Z,100913.50
2022-10-30T09:51:01.955Z,100908.19
2022-10-30T09:54:05.586Z,100906.41
2022-10-30T09:57:04.691Z,100901.66
2022-10-30T09:59:50.857Z,100900.03
2022-10-30T10:02:36.351Z,100895.09
2022-10-30T10:05:25.145Z,100894.88
2022-10-30T10:08:03.402Z,100897.88
2022-10-30T10:10:48.355Z,100905.88
2022-10-30T10:13:29.394Z,100908.06
2022-10-30T10:16:02.385Z,100897.41
2022-10-30T10:18:37.879Z,100904.50
2022-10-30T10:21:18.398Z,100901.16
2022-10-30T10:23:48.914Z,100899.13
2022-10-30T10:26:47.620Z,100891.47
2022-10-30T10:29:17.043Z,100884.00
2022-10-30T10:31:57.419Z,100893.06
2022-10-30T10:34:26.782Z,100889.56
2022-10-30T10:37:28.098Z,100893.97
2022-10-30T10:40:03.462Z,100890.28
2022-10-30T10:42:55.394Z,100895.06
2022-10-30T10:45:47.833Z,100881.53
2022-10-30T10:48:41.873Z,100876.31
2022-10-30T10:51:36.081Z,100858.28
2022-10-30T10:54:12.126Z,100870.56
2022-10-30T10:56:41.873Z,100865.69
2022-10-30T10:59:21.217Z,100867.94
2022-10-30T11:02:35.930Z,100865.66
2022-10-30T11:05:13.998Z,100858.94
2022-10-30T11:07:47.584Z,100861.22
2022-10-30T11:10:16.242Z,100857.56
2022-10-30T11:12:42.808Z,100854.88
2022-10-30T11:15:18.501Z,100855.13
2022-10-30T11:18:09.326Z,100852.09
2022-10-30T11:20:44.647Z,100841.91
2022-10-30T11:23:30.979Z,100850.03
2022-10-30T11:25:57.456Z,100845.00
2022-10-30T11:28:33.652Z,100844.44
2022-10-30T11:31:19.865Z,100840.53
2022-10-30T11:33:47.637Z,100847.38
2022-10-30T11:36:16.542Z,100842.00
2022-10-30T11:38:43.040Z,100849.38
2022-10-30T11:41:12.889Z,100837.91
2022-10-30T11:43:41.234Z,100838.41
2022-10-30T11:46:10.898Z,100836.63
2022-10-30T11:48:39.854Z,100831.59
2022-10-30T11:51:06.855Z,100835.53
2022-10-30T11:53:38.546Z,100829.16
2022-10-30T11:56:15.233Z,100828.19
2022-10-30T11:58:50.116Z,100819.44
2022-10-30T12:01:22.879Z,100830.19
2022-10-30T12:03:49.874Z,100824.22
2022-10-30T12:06:27.307Z,100815.31
2022-10-30T12:09:19.691Z,100815.38
2022-10-30T12:11:46.859Z,100810.50
2022-10-30T12:14:22.620Z,100810.59
2022-10-30T12:16:52.151Z,100816.28
2022-10-30T12:19:22.050Z,100812.25
2022-10-30T12:21:52.840Z,100808.13
2022-10-30T12:24:28.968Z,100807.06
2022-10-30T12:26:56.332Z,100804.63
2022-10-30T12:29:41.887Z,100807.66
2022-10-30T12:32:19.522Z,100798.91
2022-10-30T12:35:02.344Z,100796.53
2022-10-30T12:37:42.691Z,100790.31
2022-10-30T12:40:15.071Z,100793.31
2022-10-30T12:43:07.929Z,100802.59
2022-10-30T12:45:41.000Z,100801.44
2022-10-30T12:48:37.251Z,100800.63
2022-10-30T12:51:24.057Z,100795.53
2022-10-30T12:54:03.166Z,100791.25
2022-10-30T12:56:38.907Z,100786.56
2022-10-30T12:59:24.837Z,100785.63
2022-10-30T13:02:03.398Z,100780.00
2022-10-30T13:04:37.860Z,100783.06
2022-10-30T13:07:31.814Z,100780.00
2022-10-30T13:10:20.083Z,100780.25
2022-10-30T13:12:52.328Z,100773.91
2022-10-30T13:15:40.665Z,100775.75
2022-10-30T13:18:31.393Z,100781.38
2022-10-30T13:20:57.871Z,100784.59
2022-10-30T13:23:34.084Z,100774.13
2022-10-30T13:26:06.792Z,100774.38
2022-10-30T13:28:41.742Z,100775.31
2022-10-30T13:31:44.072Z,100774.75
2022-10-30T13:34:27.794Z,100773.56
2022-10-30T13:37:04.322Z,100776.84
2022-10-30T13:39:53.158Z,100777.75
2022-10-30T13:42:31.978Z,100777.13
2022-10-30T13:45:17.896Z,100773.25
2022-10-30T13:47:49.453Z,100771.06
2022-10-30T13:50:51.090Z,100773.59
2022-10-30T13:53:26.903Z,100769.81
2022-10-30T13:55:56.035Z,100770.09
2022-10-30T13:58:34.337Z,100776.28
2022-10-30T14:01:05.850Z,100772.75
2022-10-30T14:03:53.854Z,100764.00
2022-10-30T14:06:41.779Z,100767.59
2022-10-30T14:09:39.281Z,100766.66
2022-10-30T14:12:42.919Z,100772.75
2022-10-30T14:15:48.021Z,100774.25
2022-10-30T14:18:21.663Z,100766.44
2022-10-30T14:20:53.247Z,100770.31
2022-10-30T14:23:19.759Z,100769.44
2022-10-30T14:26:12.069Z,100772.38
2022-10-30T14:28:41.252Z,100778.19
2022-10-30T14:31:18.732Z,100779.16
2022-10-30T14:33:50.682Z,100770.13
2022-10-30T14:36:20.480Z,100769.53
2022-10-30T14:38:54.549Z,100774.97
2022-10-30T14:41:48.813Z,100779.94
2022-10-30T14:44:31.183Z,100780.28
2022-10-30T14:47:01.994Z,100775.06
2022-10-30T14:49:55.323Z,100779.69
2022-10-30T14:52:47.913Z,100779.88
2022-10-30T14:55:51.984Z,100777.69
2022-10-30T14:58:31.562Z,100775.28
2022-10-30T15:01:04.217Z,100773.44
2022-10-30T15:03:41.720Z,100773.63
2022-10-30T15:06:17.455Z,100773.56
2022-10-30T15:08:59.202Z,100774.84
2022-10-30T15:11:39.525Z,100792.81
2022-10-30T15:14:21.238Z,100784.09
2022-10-30T15:16:50.041Z,100776.56
2022-10-30T15:19:17.580Z,100783.25
2022-10-30T15:21:47.169Z,100781.63
2022-10-30T15:24:18.746Z,100780.75
2022-10-30T15:26:49.298Z,100782.91
2022-10-30T15:29:19.384Z,100795.91
2022-10-30T15:31:56.593Z,100791.13
2022-10-30T15:34:23.365Z,100787.31
2022-10-30T15:36:49.830Z,100785.03
2022-10-30T15:39:21.452Z,100790.13
2022-10-30T15:41:49.588Z,100787.38
2022-10-30T15:44:20.446Z,100788.84
2022-10-30T15:46:48.620Z,100785.97
2022-10-30T15:49:21.073Z,100789.22
2022-10-30T15:51:48.135Z,100794.44
2022-10-30T15:54:19.225Z,100792.16
2022-10-30T15:57:27.137Z,100791.25
2022-10-30T15:59:36.856Z,100793.06
2022-10-30T16:02:03.580Z,100791.19
2022-10-30T16:04:36.527Z,100796.38
2022-10-30T16:07:24.189Z,100796.34
2022-10-30T16:10:00.999Z,100801.81
2022-10-30T16:12:30.185Z,100800.00
2022-10-30T16:14:58.512Z,100800.69
2022-10-30T16:17:25.907Z,100805.22
2022-10-30T16:19:58.997Z,100812.63
2022-10-30T16:22:35.431Z,100812.75
2022-10-30T16:25:06.027Z,100827.34
2022-10-30T16:27:32.550Z,100811.00
2022-10-30T16:30:00.616Z,100812.00
2022-10-30T16:32:30.887Z,100815.03
2022-10-30T16:34:59.245Z,100810.63
2022-10-30T16:37:33.165Z,100813.59
2022-10-30T16:40:04.868Z,100810.69
2022-10-30T16:42:31.511Z,100803.16
2022-10-30T16:45:10.348Z,100815.91
2022-10-30T16:47:46.394Z,100820.53
2022-10-30T16:50:16.174Z,100821.56
2022-10-30T16:52:43.753Z,100818.69
2022-10-30T16:55:19.402Z,100831.50
2022-10-30T16:57:49.190Z,100826.81
2022-10-30T17:00:27.471Z,100827.41
2022-10-30T17:02:57.359Z,100833.91
2022-10-30T17:05:29.461Z,100828.91
2022-10-30T17:07:58.410Z,100830.94
2022-10-30T17:11:00.398Z,100843.00
2022-10-30T17:13:33.199Z,100837.34
2022-10-30T17:16:30.069Z,100844.25
2022-10-30T17:18:59.791Z,100840.53
2022-10-30T17:21:42.802Z,100849.56
2022-10-30T17:24:22.406Z,100844.72
2022-10-30T17:27:01.074Z,100857.66
2022-10-30T17:29:44.270Z,100861.75
2022-10-30T17:32:24.145Z,100859.94
2022-10-30T17:35:01.489Z,100857.09
2022-10-30T17:37:28.707Z,100866.19
2022-10-30T17:39:55.265Z,100868.41
2022-10-30T17:42:22.213Z,100871.41
2022-10-30T17:44:48.761Z,100865.75
2022-10-30T17:47:20.399Z,100871.38
2022-10-30T17:49:49.201Z,100880.63
2022-10-30T17:52:20.525Z,100881.53
2022-10-30T17:54:47.002Z,100875.00
2022-10-30T17:57:34.880Z,100876.16
2022-10-30T18:00:01.543Z,100883.84
2022-10-30T18:02:28.075Z,100886.09
2022-10-30T18:04:55.352Z,100882.19
2022-10-30T18:07:21.876Z,100888.75
2022-10-30T18:09:48.352Z,100895.34
2022-10-30T18:12:42.382Z,100893.88
2022-10-30T18:15:46.495Z,100904.59
2022-10-30T18:18:20.677Z,100900.00
2022-10-30T18:20:47.160Z,100905.72
2022-10-30T18:26:20.449Z,100919.13
2022-10-30T18:28:48.123Z,100926.84
2022-10-30T18:31:17.263Z,100914.53
2022-10-30T18:33:44.525Z,100921.84
2022-10-30T18:36:19.368Z,100920.66
2022-10-30T18:38:46.595Z,100914.84
2022-10-30T18:41:22.905Z,100924.44
2022-10-30T18:43:49.465Z,100926.09
2022-10-30T18:46:16.895Z,100925.34
2022-10-30T18:48:44.429Z,100926.84
2022-10-30T18:51:19.798Z,100934.53
2022-10-30T18:53:51.795Z,100934.16
2022-10-30T18:56:30.169Z,100938.41
2022-10-30T18:59:01.810Z,100929.53
2022-10-30T19:01:30.782Z,100931.84
2022-10-30T19:04:00.748Z,100923.78
2022-10-30T19:06:27.526Z,100933.22
2022-10-30T19:08:53.996Z,100935.94
2022-10-30T19:11:24.586Z,100935.19
2022-10-30T19:13:53.513Z,100936.34
2022-10-30T19:16:21.620Z,100946.66
2022-10-30T19:18:48.687Z,100942.44
2022-10-30T19:21:25.400Z,100940.50
2022-10-30T19:23:52.683Z,100943.81
2022-10-30T19:26:19.293Z,100938.75
2022-10-30T19:28:45.960Z,100946.03
2022-10-30T19:31:17.201Z,100951.38
2022-10-30T19:33:44.258Z,100947.56
2022-10-30T19:36:28.700Z,100950.22
2022-10-30T19:38:55.941Z,100943.09
2022-10-30T19:41:24.589Z,100941.03
2022-10-30T19:43:51.782Z,100955.34
2022-10-30T19:46:18.447Z,100949.38
2022-10-30T19:48:57.296Z,100944.78
2022-10-30T19:51:24.611Z,100949.03
2022-10-30T19:53:53.079Z,100947.16
2022-10-30T19:56:20.532Z,100947.88
2022-10-30T19:58:47.085Z,100958.97
2022-10-30T20:01:14.231Z,100960.66
2022-10-30T20:03:40.826Z,100957.00
2022-10-30T20:06:07.475Z,100958.56
2022-10-30T20:08:34.083Z,100956.59
2022-10-30T20:11:01.889Z,100965.22
2022-10-30T20:13:29.697Z,100964.25
2022-10-30T20:15:58.584Z,100968.50
2022-10-30T20:18:31.316Z,100965.59
2022-10-30T20:21:00.420Z,100969.19
2022-10-30T20:23:27.565Z,100975.91
2022-10-30T20:26:02.526Z,100971.19
2022-10-30T20:28:36.213Z,100980.41
2022-10-30T20:31:02.987Z,100960.47
2022-10-30T20:33:29.486Z,100973.41
2022-10-30T20:35:56.656Z,100982.13
2022-10-30T20:38:32.808Z,100984.81
2022-10-30T20:41:02.338Z,100983.75
2022-10-30T20:43:31.922Z,100986.34
2022-10-30T20:45:59.899Z,100987.97
2022-10-30T20:48:27.781Z,100987.47
2022-10-30T20:50:56.021Z,100981.75
2022-10-30T20:53:22.547Z,100989.41
2022-10-30T20:55:49.098Z,101001.19
2022-10-30T20:58:15.666Z,100990.66
2022-10-30T21:00:42.642Z,100993.59
2022-10-30T21:03:11.014Z,100992.84
2022-10-30T21:05:43.979Z,100994.03
2022-10-30T21:08:12.526Z,101002.72
2022-10-30T21:10:39.230Z,101001.84
2022-10-30T21:13:08.863Z,100999.38
2022-10-30T21:15:41.691Z,101001.84
2022-10-30T21:18:09.090Z,101005.13
2022-10-30T21:20:37.001Z,101010.31
2022-10-30T21:23:03.921Z,101001.69
2022-10-30T21:25:32.109Z,101004.38
2022-10-30T21:27:58.752Z,100996.44
2022-10-30T21:30:25.339Z,101000.22
2022-10-30T21:32:51.863Z,101007.78
2022-10-30T21:35:18.447Z,101004.84
2022-10-30T21:37:44.958Z,101007.25
2022-10-30T21:40:12.251Z,100998.16
2022-10-30T21:42:38.771Z,101005.47
2022-10-30T21:45:06.146Z,101003.31
2022-10-30T21:47:32.784Z,100999.91
2022-10-30T21:49:59.373Z,101007.31
2022-10-30T21:52:25.942Z,101002.59
2022-10-30T21:54:52.453Z,101004.63
2022-10-30T21:57:18.920Z,101000.13
2022-10-30T21:59:45.548Z,101003.31
2022-10-30T22:02:15.394Z,101009.56
2022-10-30T22:04:42.159Z,101006.91
2022-10-30T22:07:08.799Z,101006.63
2022-10-30T22:09:35.301Z,101004.28
2022-10-30T22:12:01.755Z,100998.06
2022-10-30T22:14:29.126Z,101003.41
2022-10-30T22:16:55.616Z,100994.44
2022-10-30T22:19:22.106Z,100997.50
2022-10-30T22:21:48.618Z,100993.75
2022-10-30T22:24:15.971Z,100994.09
2022-10-30T22:26:42.463Z,101005.09
2022-10-30T22:29:09.189Z,100993.38
2022-10-30T22:31:35.689Z,100997.50
2022-10-30T22:34:02.493Z,100993.75
2022-10-30T22:36:31.172Z,101000.66
2022-10-30T22:39:05.625Z,100992.56
2022-10-30T22:41:36.465Z,101001.31
2022-10-30T22:44:07.418Z,101003.06
2022-10-30T22:46:34.406Z,100995.09
2022-10-30T22:49:00.920Z,100994.78
2022-10-30T22:51:27.531Z,101004.53
2022-10-30T22:53:57.093Z,101001.75
2022-10-30T22:56:26.335Z,100994.84
2022-10-30T22:58:53.837Z,100995.13
2022-10-30T23:01:28.912Z,100998.78
2022-10-30T23:03:57.095Z,100997.16
2022-10-30T23:06:24.346Z,100999.47
2022-10-30T23:08:56.094Z,100995.69
2022-10-30T23:11:22.642Z,101000.03
2022-10-30T23:13:49.276Z,101004.50
2022-10-30T23:16:18.421Z,101015.75
2022-10-30T23:18:45.645Z,101016.44
2022-10-30T23:21:20.046Z,101015.91
2022-10-30T23:23:46.784Z,101018.47
2022-10-30T23:26:18.950Z,101022.34
2022-10-30T23:28:46.440Z,101007.81
2022-10-30T23:31:18.615Z,101008.44
2022-10-30T23:33:54.003Z,101012.09
2022-10-30T23:36:21.327Z,101009.00
2022-10-30T23:38:58.861Z,101013.25
2022-10-30T23:41:30.470Z,101015.31
2022-10-30T23:44:02.345Z,101020.59
2022-10-30T23:46:29.465Z,101016.47
2022-10-30T23:48:56.134Z,101017.84
2022-10-30T23:51:23.166Z,101019.88
2022-10-30T23:53:50.008Z,101025.78
2022-10-30T23:56:17.027Z,101021.91
2022-10-30T23:58:47.681Z,101029.66
